sensor_id;sensor_type;location;lat;lon;timestamp;pressure;altitude;pressure_sealevel;temperature;humidity
60345;BME280;46188;52.324;8.032;2024-03-22T00:02:25;100936.47;;;9.42;100.00
60345;BME280;46188;52.324;8.032;2024-03-22T00:04:50;100937.34;;;9.43;100.00
60345;BME280;46188;52.324;8.032;2024-03-22T00:07:15;100929.44;;;9.43;100.00
60345;BME280;46188;52.324;8.032;2024-03-22T00:09:40;100915.41;;;9.42;100.00
60345;BME280;46188;52.324;8.032;2024-03-22T00:12:06;100915.41;;;9.42;100.00
60345;BME280;46188;52.324;8.032;2024-03-22T00:14:31;100916.31;;;9.43;100.00
60345;BME280;46188;52.324;8.032;2024-03-22T00:16:57;100903.13;;;9.43;100.00
60345;BME280;46188;52.324;8.032;2024-03-22T00:19:22;100899.66;;;9.44;100.00
60345;BME280;46188;52.324;8.032;2024-03-22T00:21:47;100897.91;;;9.45;100.00
60345;BME280;46188;52.324;8.032;2024-03-22T00:24:12;100911.06;;;9.45;100.00
60345;BME280;46188;52.324;8.032;2024-03-22T00:26:38;100904.09;;;9.45;100.00
60345;BME280;46188;52.324;8.032;2024-03-22T00:29:03;100889.19;;;9.46;100.00
60345;BME280;46188;52.324;8.032;2024-03-22T00:31:28;100897.09;;;9.47;100.00
60345;BME280;46188;52.324;8.032;2024-03-22T00:33:53;100888.34;;;9.47;100.00
60345;BME280;46188;52.324;8.032;2024-03-22T00:36:19;100886.59;;;9.47;100.00
60345;BME280;46188;52.324;8.032;2024-03-22T00:38:44;100890.09;;;9.48;100.00
60345;BME280;46188;52.324;8.032;2024-03-22T00:41:10;100890.13;;;9.49;100.00
60345;BME280;46188;52.324;8.032;2024-03-22T00:43:35;100880.47;;;9.50;100.00
60345;BME280;46188;52.324;8.032;2024-03-22T00:46:00;100878.75;;;9.50;100.00
60345;BME280;46188;52.324;8.032;2024-03-22T00:48:27;100882.28;;;9.51;100.00
60345;BME280;46188;52.324;8.032;2024-03-22T00:50:53;100890.19;;;9.52;100.00
60345;BME280;46188;52.324;8.032;2024-03-22T00:53:18;100877.03;;;9.52;100.00
60345;BME280;46188;52.324;8.032;2024-03-22T00:55:43;100870.91;;;9.52;100.00
60345;BME280;46188;52.324;8.032;2024-03-22T00:58:08;100884.09;;;9.53;100.00
60345;BME280;46188;52.324;8.032;2024-03-22T01:00:34;100880.59;;;9.54;100.00
60345;BME280;46188;52.324;8.032;2024-03-22T01:02:59;100879.75;;;9.55;100.00
60345;BME280;46188;52.324;8.032;2024-03-22T01:05:24;100857.78;;;9.55;100.00
60345;BME280;46188;52.324;8.032;2024-03-22T01:07:51;100853.44;;;9.55;100.00
60345;BME280;46188;52.324;8.032;2024-03-22T01:10:16;100855.19;;;9.56;100.00
60345;BME280;46188;52.324;8.032;2024-03-22T01:12:41;100863.06;;;9.56;100.00
60345;BME280;46188;52.324;8.032;2024-03-22T01:15:07;100852.56;;;9.56;100.00
60345;BME280;46188;52.324;8.032;2024-03-22T01:17:33;100851.75;;;9.59;100.00
60345;BME280;46188;52.324;8.032;2024-03-22T01:19:58;100843.00;;;9.60;100.00
60345;BME280;46188;52.324;8.032;2024-03-22T01:22:24;100837.75;;;9.60;100.00
60345;BME280;46188;52.324;8.032;2024-03-22T01:24:49;100836.81;;;9.59;100.00
60345;BME280;46188;52.324;8.032;2024-03-22T01:27:14;100836.81;;;9.59;100.00
60345;BME280;46188;52.324;8.032;2024-03-22T01:29:39;100831.59;;;9.61;100.00
60345;BME280;46188;52.324;8.032;2024-03-22T01:32:05;100824.59;;;9.62;100.00
60345;BME280;46188;52.324;8.032;2024-03-22T01:34:30;100824.59;;;9.62;100.00
60345;BME280;46188;52.324;8.032;2024-03-22T01:36:55;100831.63;;;9.63;100.00
60345;BME280;46188;52.324;8.032;2024-03-22T01:39:21;100832.50;;;9.63;100.00
60345;BME280;46188;52.324;8.032;2024-03-22T01:41:50;100817.63;;;9.64;100.00
60345;BME280;46188;52.324;8.032;2024-03-22T01:44:16;100814.13;;;9.65;100.00
60345;BME280;46188;52.324;8.032;2024-03-22T01:46:42;100806.22;;;9.65;100.00
60345;BME280;46188;52.324;8.032;2024-03-22T01:49:09;100801.91;;;9.67;100.00
60345;BME280;46188;52.324;8.032;2024-03-22T01:51:36;100793.13;;;9.68;100.00
60345;BME280;46188;52.324;8.032;2024-03-22T01:54:03;100794.03;;;9.68;100.00
60345;BME280;46188;52.324;8.032;2024-03-22T01:56:29;100789.66;;;9.69;100.00
60345;BME280;46188;52.324;8.032;2024-03-22T01:58:56;100791.44;;;9.70;100.00
60345;BME280;46188;52.324;8.032;2024-03-22T02:01:21;100786.16;;;9.70;100.00
60345;BME280;46188;52.324;8.032;2024-03-22T02:03:47;100786.16;;;9.71;100.00
60345;BME280;46188;52.324;8.032;2024-03-22T02:06:12;100776.53;;;9.72;100.00
60345;BME280;46188;52.324;8.032;2024-03-22T02:08:37;100777.41;;;9.71;100.00
60345;BME280;46188;52.324;8.032;2024-03-22T02:11:05;100773.00;;;9.71;100.00
60345;BME280;46188;52.324;8.032;2024-03-22T02:13:31;100773.00;;;9.71;100.00
60345;BME280;46188;52.324;8.032;2024-03-22T02:15:56;100759.84;;;9.71;100.00
60345;BME280;46188;52.324;8.032;2024-03-22T02:18:22;100758.97;;;9.71;100.00
60345;BME280;46188;52.324;8.032;2024-03-22T02:20:47;100738.78;;;9.70;100.00
60345;BME280;46188;52.324;8.032;2024-03-22T02:23:12;100741.38;;;9.68;100.00
60345;BME280;46188;52.324;8.032;2024-03-22T02:25:38;100741.38;;;9.68;100.00
60345;BME280;46188;52.324;8.032;2024-03-22T02:28:03;100736.13;;;9.68;100.00
60345;BME280;46188;52.324;8.032;2024-03-22T02:30:29;100743.09;;;9.68;100.00
60345;BME280;46188;52.324;8.032;2024-03-22T02:32:54;100730.84;;;9.68;100.00
60345;BME280;46188;52.324;8.032;2024-03-22T02:35:19;100730.88;;;9.70;100.00
60345;BME280;46188;52.324;8.032;2024-03-22T02:37:44;100729.13;;;9.70;100.00
60345;BME280;46188;52.324;8.032;2024-03-22T02:40:10;100722.06;;;9.69;100.00
60345;BME280;46188;52.324;8.032;2024-03-22T02:42:35;100715.06;;;9.68;100.00
60345;BME280;46188;52.324;8.032;2024-03-22T02:45:01;100712.44;;;9.68;100.00
60345;BME280;46188;52.324;8.032;2024-03-22T02:47:26;100715.91;;;9.67;100.00
60345;BME280;46188;52.324;8.032;2024-03-22T02:49:51;100723.84;;;9.69;100.00
60345;BME280;46188;52.324;8.032;2024-03-22T02:52:16;100723.84;;;9.69;100.00
60345;BME280;46188;52.324;8.032;2024-03-22T02:54:42;100712.47;;;9.70;100.00
60345;BME280;46188;52.324;8.032;2024-03-22T02:57:07;100710.66;;;9.69;100.00
60345;BME280;46188;52.324;8.032;2024-03-22T02:59:32;100691.41;;;9.70;100.00
60345;BME280;46188;52.324;8.032;2024-03-22T03:01:57;100684.34;;;9.69;100.00
60345;BME280;46188;52.324;8.032;2024-03-22T03:04:23;100678.25;;;9.70;100.00
60345;BME280;46188;52.324;8.032;2024-03-22T03:06:48;100672.97;;;9.70;100.00
60345;BME280;46188;52.324;8.032;2024-03-22T03:09:13;100670.34;;;9.70;100.00
60345;BME280;46188;52.324;8.032;2024-03-22T03:11:39;100665.91;;;9.69;100.00
60345;BME280;46188;52.324;8.032;2024-03-22T03:14:05;100669.44;;;9.69;100.00
60345;BME280;46188;52.324;8.032;2024-03-22T03:16:30;100665.06;;;9.70;100.00
60345;BME280;46188;52.324;8.032;2024-03-22T03:18:55;100657.19;;;9.70;100.00
60345;BME280;46188;52.324;8.032;2024-03-22T03:21:20;100659.81;;;9.70;100.00
60345;BME280;46188;52.324;8.032;2024-03-22T03:23:46;100653.66;;;9.71;100.00
60345;BME280;46188;52.324;8.032;2024-03-22T03:26:11;100666.81;;;9.71;100.00
60345;BME280;46188;52.324;8.032;2024-03-22T03:28:36;100656.28;;;9.71;100.00
60345;BME280;46188;52.324;8.032;2024-03-22T03:31:01;100651.06;;;9.72;100.00
60345;BME280;46188;52.324;8.032;2024-03-22T03:33:27;100644.94;;;9.73;100.00
60345;BME280;46188;52.324;8.032;2024-03-22T03:35:52;100635.28;;;9.74;100.00
60345;BME280;46188;52.324;8.032;2024-03-22T03:38:17;100628.28;;;9.74;100.00
60345;BME280;46188;52.324;8.032;2024-03-22T03:40:43;100626.56;;;9.75;100.00
60345;BME280;46188;52.324;8.032;2024-03-22T03:43:08;100624.78;;;9.75;100.00
60345;BME280;46188;52.324;8.032;2024-03-22T03:45:36;100619.56;;;9.77;100.00
60345;BME280;46188;52.324;8.032;2024-03-22T03:48:02;100623.94;;;9.76;100.00
60345;BME280;46188;52.324;8.032;2024-03-22T03:50:27;100603.75;;;9.77;100.00
60345;BME280;46188;52.324;8.032;2024-03-22T03:52:53;100601.16;;;9.78;100.00
60345;BME280;46188;52.324;8.032;2024-03-22T03:55:18;100599.41;;;9.81;100.00
60345;BME280;46188;52.324;8.032;2024-03-22T03:57:43;100603.81;;;9.80;100.00
60345;BME280;46188;52.324;8.032;2024-03-22T04:00:09;100603.81;;;9.80;100.00
60345;BME280;46188;52.324;8.032;2024-03-22T04:02:34;100598.53;;;9.80;100.00
60345;BME280;46188;52.324;8.032;2024-03-22T04:04:59;100601.22;;;9.82;100.00
60345;BME280;46188;52.324;8.032;2024-03-22T04:07:25;100599.44;;;9.82;100.00
60345;BME280;46188;52.324;8.032;2024-03-22T04:09:50;100598.59;;;9.83;100.00
60345;BME280;46188;52.324;8.032;2024-03-22T04:12:15;100596.84;;;9.84;100.00
60345;BME280;46188;52.324;8.032;2024-03-22T04:14:41;100593.34;;;9.83;100.00
60345;BME280;46188;52.324;8.032;2024-03-22T04:17:06;100582.81;;;9.83;100.00
60345;BME280;46188;52.324;8.032;2024-03-22T04:19:31;100575.75;;;9.82;100.00
60345;BME280;46188;52.324;8.032;2024-03-22T04:21:56;100569.63;;;9.82;100.00
60345;BME280;46188;52.324;8.032;2024-03-22T04:24:22;100558.16;;;9.81;100.00
60345;BME280;46188;52.324;8.032;2024-03-22T04:26:47;100567.84;;;9.82;100.00
60345;BME280;46188;52.324;8.032;2024-03-22T04:29:13;100561.75;;;9.83;100.00
60345;BME280;46188;52.324;8.032;2024-03-22T04:31:38;100561.75;;;9.83;100.00
60345;BME280;46188;52.324;8.032;2024-03-22T04:34:04;100559.09;;;9.83;100.00
60345;BME280;46188;52.324;8.032;2024-03-22T04:36:32;100549.44;;;9.84;100.00
60345;BME280;46188;52.324;8.032;2024-03-22T04:38:58;100556.50;;;9.85;100.00
60345;BME280;46188;52.324;8.032;2024-03-22T04:41:23;100544.22;;;9.85;100.00
60345;BME280;46188;52.324;8.032;2024-03-22T04:43:48;100544.22;;;9.85;100.00
60345;BME280;46188;52.324;8.032;2024-03-22T04:46:13;100544.22;;;9.85;100.00
60345;BME280;46188;52.324;8.032;2024-03-22T04:48:39;100537.19;;;9.86;100.00
60345;BME280;46188;52.324;8.032;2024-03-22T04:51:04;100524.91;;;9.88;100.00
60345;BME280;46188;52.324;8.032;2024-03-22T04:53:29;100520.56;;;9.88;100.00
60345;BME280;46188;52.324;8.032;2024-03-22T04:55:55;100517.94;;;9.88;100.00
60345;BME280;46188;52.324;8.032;2024-03-22T04:58:21;100519.69;;;9.89;100.00
60345;BME280;46188;52.324;8.032;2024-03-22T05:00:47;100523.25;;;9.91;100.00
60345;BME280;46188;52.324;8.032;2024-03-22T05:03:13;100517.06;;;9.91;100.00
60345;BME280;46188;52.324;8.032;2024-03-22T05:05:38;100531.16;;;9.91;100.00
60345;BME280;46188;52.324;8.032;2024-03-22T05:08:05;100530.25;;;9.92;100.00
60345;BME280;46188;52.324;8.032;2024-03-22T05:10:30;100548.72;;;9.94;100.00
60345;BME280;46188;52.324;8.032;2024-03-22T05:12:56;100546.09;;;9.95;100.00
60345;BME280;46188;52.324;8.032;2024-03-22T05:15:22;100535.56;;;9.95;100.00
60345;BME280;46188;52.324;8.032;2024-03-22T05:17:48;100530.31;;;9.95;100.00
60345;BME280;46188;52.324;8.032;2024-03-22T05:20:14;100531.22;;;9.97;100.00
60345;BME280;46188;52.324;8.032;2024-03-22T05:22:39;100529.47;;;9.98;100.00
60345;BME280;46188;52.324;8.032;2024-03-22T05:25:05;100526.81;;;9.96;100.00
60345;BME280;46188;52.324;8.032;2024-03-22T05:27:31;100526.84;;;9.98;100.00
60345;BME280;46188;52.324;8.032;2024-03-22T05:29:57;100521.59;;;10.00;100.00
60345;BME280;46188;52.324;8.032;2024-03-22T05:32:22;100518.09;;;10.01;100.00
60345;BME280;46188;52.324;8.032;2024-03-22T05:34:48;100523.38;;;10.02;100.00
60345;BME280;46188;52.324;8.032;2024-03-22T05:37:13;100525.13;;;10.02;100.00
60345;BME280;46188;52.324;8.032;2024-03-22T05:39:38;100527.81;;;10.05;100.00
60345;BME280;46188;52.324;8.032;2024-03-22T05:42:05;100519.91;;;10.05;100.00
60345;BME280;46188;52.324;8.032;2024-03-22T05:44:30;100522.56;;;10.06;100.00
60345;BME280;46188;52.324;8.032;2024-03-22T05:46:56;100518.19;;;10.07;100.00
60345;BME280;46188;52.324;8.032;2024-03-22T05:49:21;100515.56;;;10.07;100.00
60345;BME280;46188;52.324;8.032;2024-03-22T05:51:46;100510.31;;;10.08;100.00
60345;BME280;46188;52.324;8.032;2024-03-22T05:54:12;100510.31;;;10.08;100.00
60345;BME280;46188;52.324;8.032;2024-03-22T05:56:37;100507.66;;;10.08;100.00
60345;BME280;46188;52.324;8.032;2024-03-22T05:59:02;100518.22;;;10.08;100.00
60345;BME280;46188;52.324;8.032;2024-03-22T06:01:28;100506.78;;;10.09;100.00
60345;BME280;46188;52.324;8.032;2024-03-22T06:03:53;100500.66;;;10.09;100.00
60345;BME280;46188;52.324;8.032;2024-03-22T06:06:18;100502.44;;;10.10;100.00
60345;BME280;46188;52.324;8.032;2024-03-22T06:08:44;100499.81;;;10.11;100.00
60345;BME280;46188;52.324;8.032;2024-03-22T06:11:10;100500.69;;;10.12;100.00
60345;BME280;46188;52.324;8.032;2024-03-22T06:13:35;100482.28;;;10.13;100.00
60345;BME280;46188;52.324;8.032;2024-03-22T06:16:01;100497.19;;;10.13;100.00
60345;BME280;46188;52.324;8.032;2024-03-22T06:18:27;100490.19;;;10.13;100.00
60345;BME280;46188;52.324;8.032;2024-03-22T06:20:52;100498.94;;;10.14;100.00
60345;BME280;46188;52.324;8.032;2024-03-22T06:23:20;100499.84;;;10.14;100.00
60345;BME280;46188;52.324;8.032;2024-03-22T06:25:55;100504.25;;;10.15;100.00
60345;BME280;46188;52.324;8.032;2024-03-22T06:28:20;100494.59;;;10.18;100.00
60345;BME280;46188;52.324;8.032;2024-03-22T06:30:45;100482.38;;;10.20;100.00
60345;BME280;46188;52.324;8.032;2024-03-22T06:33:11;100489.41;;;10.22;100.00
60345;BME280;46188;52.324;8.032;2024-03-22T06:35:36;100473.63;;;10.24;100.00
60345;BME280;46188;52.324;8.032;2024-03-22T06:38:01;100487.69;;;10.26;100.00
60345;BME280;46188;52.324;8.032;2024-03-22T06:40:28;100477.19;;;10.29;100.00
60345;BME280;46188;52.324;8.032;2024-03-22T06:42:53;100480.72;;;10.31;100.00
60345;BME280;46188;52.324;8.032;2024-03-22T06:45:19;100476.34;;;10.31;100.00
60345;BME280;46188;52.324;8.032;2024-03-22T06:47:44;100471.16;;;10.34;100.00
60345;BME280;46188;52.324;8.032;2024-03-22T06:50:11;100481.72;;;10.38;100.00
60345;BME280;46188;52.324;8.032;2024-03-22T06:52:36;100468.56;;;10.39;100.00
60345;BME280;46188;52.324;8.032;2024-03-22T06:55:01;100467.72;;;10.42;100.00
60345;BME280;46188;52.324;8.032;2024-03-22T06:57:26;100473.00;;;10.43;100.00
60345;BME280;46188;52.324;8.032;2024-03-22T06:59:52;100467.75;;;10.45;100.00
60345;BME280;46188;52.324;8.032;2024-03-22T07:02:17;100471.28;;;10.47;100.00
60345;BME280;46188;52.324;8.032;2024-03-22T07:04:43;100472.19;;;10.50;100.00
60345;BME280;46188;52.324;8.032;2024-03-22T07:07:09;100475.75;;;10.52;100.00
60345;BME280;46188;52.324;8.032;2024-03-22T07:09:34;100478.38;;;10.54;100.00
60345;BME280;46188;52.324;8.032;2024-03-22T07:11:59;100474.91;;;10.57;100.00
60345;BME280;46188;52.324;8.032;2024-03-22T07:14:24;100471.44;;;10.59;100.00
60345;BME280;46188;52.324;8.032;2024-03-22T07:16:50;100466.16;;;10.61;100.00
60345;BME280;46188;52.324;8.032;2024-03-22T07:19:18;100465.31;;;10.63;100.00
60345;BME280;46188;52.324;8.032;2024-03-22T07:21:43;100467.13;;;10.66;100.00
60345;BME280;46188;52.324;8.032;2024-03-22T07:24:08;100460.09;;;10.68;100.00
60345;BME280;46188;52.324;8.032;2024-03-22T07:26:33;100460.16;;;10.73;100.00
60345;BME280;46188;52.324;8.032;2024-03-22T07:28:59;100461.06;;;10.76;100.00
60345;BME280;46188;52.324;8.032;2024-03-22T07:31:24;100451.41;;;10.78;100.00
60345;BME280;46188;52.324;8.032;2024-03-22T07:33:49;100459.38;;;10.83;100.00
60345;BME280;46188;52.324;8.032;2024-03-22T07:36:15;100455.00;;;10.86;100.00
60345;BME280;46188;52.324;8.032;2024-03-22T07:38:41;100458.53;;;10.90;100.00
60345;BME280;46188;52.324;8.032;2024-03-22T07:41:06;100457.72;;;10.93;100.00
60345;BME280;46188;52.324;8.032;2024-03-22T07:43:32;100456.81;;;10.94;100.00
60345;BME280;46188;52.324;8.032;2024-03-22T07:45:57;100447.22;;;10.97;100.00
60345;BME280;46188;52.324;8.032;2024-03-22T07:48:22;100443.69;;;10.98;100.00
60345;BME280;46188;52.324;8.032;2024-03-22T07:50:56;100452.47;;;11.00;100.00
60345;BME280;46188;52.324;8.032;2024-03-22T07:53:21;100452.47;;;11.00;100.00
60345;BME280;46188;52.324;8.032;2024-03-22T07:55:46;100448.13;;;11.04;100.00
60345;BME280;46188;52.324;8.032;2024-03-22T07:58:12;100442.88;;;11.07;100.00
60345;BME280;46188;52.324;8.032;2024-03-22T08:00:37;100447.31;;;11.11;100.00
60345;BME280;46188;52.324;8.032;2024-03-22T08:03:03;100438.53;;;11.14;100.00
60345;BME280;46188;52.324;8.032;2024-03-22T08:05:28;100441.19;;;11.17;100.00
60345;BME280;46188;52.324;8.032;2024-03-22T08:07:54;100440.34;;;11.21;100.00
60345;BME280;46188;52.324;8.032;2024-03-22T08:10:19;100443.91;;;11.26;100.00
60345;BME280;46188;52.324;8.032;2024-03-22T08:12:44;100429.03;;;11.34;100.00
60345;BME280;46188;52.324;8.032;2024-03-22T08:15:09;100441.38;;;11.41;100.00
60345;BME280;46188;52.324;8.032;2024-03-22T08:17:35;100442.31;;;11.50;100.00
60345;BME280;46188;52.324;8.032;2024-03-22T08:20:00;100430.94;;;11.57;100.00
60345;BME280;46188;52.324;8.032;2024-03-22T08:22:26;100430.06;;;11.61;100.00
60345;BME280;46188;52.324;8.032;2024-03-22T08:24:51;100421.31;;;11.65;100.00
60345;BME280;46188;52.324;8.032;2024-03-22T08:27:16;100429.22;;;11.68;100.00
60345;BME280;46188;52.324;8.032;2024-03-22T08:29:42;100426.59;;;11.71;100.00
60345;BME280;46188;52.324;8.032;2024-03-22T08:32:08;100423.09;;;11.74;100.00
60345;BME280;46188;52.324;8.032;2024-03-22T08:34:34;100422.19;;;11.66;100.00
60345;BME280;46188;52.324;8.032;2024-03-22T08:36:59;100426.53;;;11.59;100.00
60345;BME280;46188;52.324;8.032;2024-03-22T08:39:24;100421.22;;;11.53;100.00
60345;BME280;46188;52.324;8.032;2024-03-22T08:41:51;100412.38;;;11.48;100.00
60345;BME280;46188;52.324;8.032;2024-03-22T08:44:16;100414.16;;;11.45;100.00
60345;BME280;46188;52.324;8.032;2024-03-22T08:46:41;100406.25;;;11.47;100.00
60345;BME280;46188;52.324;8.032;2024-03-22T08:49:07;100402.75;;;11.53;100.00
60345;BME280;46188;52.324;8.032;2024-03-22T08:51:32;100401.00;;;11.58;100.00
60345;BME280;46188;52.324;8.032;2024-03-22T08:53:57;100412.47;;;11.57;100.00
60345;BME280;46188;52.324;8.032;2024-03-22T08:56:22;100403.63;;;11.56;100.00
60345;BME280;46188;52.324;8.032;2024-03-22T08:58:48;100394.81;;;11.53;100.00
60345;BME280;46188;52.324;8.032;2024-03-22T09:01:13;100408.91;;;11.50;100.00
60345;BME280;46188;52.324;8.032;2024-03-22T09:03:38;100400.06;;;11.47;100.00
60345;BME280;46188;52.324;8.032;2024-03-22T09:06:04;100403.59;;;11.45;100.00
60345;BME280;46188;52.324;8.032;2024-03-22T09:08:29;100400.94;;;11.44;100.00
60345;BME280;46188;52.324;8.032;2024-03-22T09:10:55;100402.66;;;11.43;100.00
60345;BME280;46188;52.324;8.032;2024-03-22T09:13:20;100387.69;;;11.39;100.00
60345;BME280;46188;52.324;8.032;2024-03-22T09:15:45;100388.59;;;11.41;100.00
60345;BME280;46188;52.324;8.032;2024-03-22T09:18:11;100384.22;;;11.47;100.00
60345;BME280;46188;52.324;8.032;2024-03-22T09:20:36;100396.56;;;11.51;100.00
60345;BME280;46188;52.324;8.032;2024-03-22T09:23:01;100386.91;;;11.53;100.00
60345;BME280;46188;52.324;8.032;2024-03-22T09:25:27;100379.00;;;11.56;100.00
60345;BME280;46188;52.324;8.032;2024-03-22T09:27:52;100386.97;;;11.62;100.00
60345;BME280;46188;52.324;8.032;2024-03-22T09:30:18;100380.81;;;11.66;100.00
60345;BME280;46188;52.324;8.032;2024-03-22T09:32:43;100386.13;;;11.71;100.00
60345;BME280;46188;52.324;8.032;2024-03-22T09:35:09;100386.13;;;11.74;100.00
60345;BME280;46188;52.324;8.032;2024-03-22T09:37:34;100378.25;;;11.78;100.00
60345;BME280;46188;52.324;8.032;2024-03-22T09:40:00;100380.88;;;11.85;100.00
60345;BME280;46188;52.324;8.032;2024-03-22T09:42:26;100377.38;;;11.86;100.00
60345;BME280;46188;52.324;8.032;2024-03-22T09:44:54;100372.97;;;11.86;100.00
60345;BME280;46188;52.324;8.032;2024-03-22T09:47:20;100369.47;;;11.86;100.00
60345;BME280;46188;52.324;8.032;2024-03-22T09:49:46;100376.50;;;11.84;100.00
60345;BME280;46188;52.324;8.032;2024-03-22T09:52:14;100375.59;;;11.81;100.00
60345;BME280;46188;52.324;8.032;2024-03-22T09:54:43;100370.31;;;11.78;100.00
60345;BME280;46188;52.324;8.032;2024-03-22T09:57:14;100376.47;;;11.77;100.00
60345;BME280;46188;52.324;8.032;2024-03-22T09:59:43;100372.03;;;11.76;100.00
60345;BME280;46188;52.324;8.032;2024-03-22T10:02:12;100379.97;;;11.75;100.00
60345;BME280;46188;52.324;8.032;2024-03-22T10:04:39;100372.94;;;11.74;100.00
60345;BME280;46188;52.324;8.032;2024-03-22T10:07:05;100366.78;;;11.72;100.00
60345;BME280;46188;52.324;8.032;2024-03-22T10:09:32;100378.19;;;11.71;100.00
60345;BME280;46188;52.324;8.032;2024-03-22T10:11:57;100373.75;;;11.67;100.00
60345;BME280;46188;52.324;8.032;2024-03-22T10:14:23;100375.50;;;11.63;100.00
60345;BME280;46188;52.324;8.032;2024-03-22T10:16:51;100387.81;;;11.61;100.00
60345;BME280;46188;52.324;8.032;2024-03-22T10:19:18;100402.78;;;11.57;100.00
60345;BME280;46188;52.324;8.032;2024-03-22T10:21:44;100386.91;;;11.54;100.00
60345;BME280;46188;52.324;8.032;2024-03-22T10:24:09;100391.31;;;11.52;100.00
60345;BME280;46188;52.324;8.032;2024-03-22T10:26:35;100397.44;;;11.50;100.00
60345;BME280;46188;52.324;8.032;2024-03-22T10:29:10;100385.97;;;11.46;100.00
60345;BME280;46188;52.324;8.032;2024-03-22T10:31:39;100382.47;;;11.45;100.00
60345;BME280;46188;52.324;8.032;2024-03-22T10:34:05;100385.09;;;11.44;100.00
60345;BME280;46188;52.324;8.032;2024-03-22T10:36:31;100383.28;;;11.40;100.00
60345;BME280;46188;52.324;8.032;2024-03-22T10:38:58;100387.69;;;11.39;100.00
60345;BME280;46188;52.324;8.032;2024-03-22T10:41:25;100382.41;;;11.36;100.00
60345;BME280;46188;52.324;8.032;2024-03-22T10:43:50;100378.88;;;11.33;100.00
60345;BME280;46188;52.324;8.032;2024-03-22T10:46:16;100383.25;;;11.31;100.00
60345;BME280;46188;52.324;8.032;2024-03-22T10:48:45;100380.59;;;11.29;100.00
60345;BME280;46188;52.324;8.032;2024-03-22T10:51:10;100380.59;;;11.27;100.00
60345;BME280;46188;52.324;8.032;2024-03-22T10:53:37;100388.50;;;11.26;100.00
60345;BME280;46188;52.324;8.032;2024-03-22T10:56:07;100391.97;;;11.22;100.00
60345;BME280;46188;52.324;8.032;2024-03-22T10:58:39;100378.78;;;11.17;100.00
60345;BME280;46188;52.324;8.032;2024-03-22T11:01:27;100384.88;;;11.13;100.00
60345;BME280;46188;52.324;8.032;2024-03-22T11:04:05;100376.03;;;11.05;100.00
60345;BME280;46188;52.324;8.032;2024-03-22T11:06:38;100380.41;;;11.01;100.00
60345;BME280;46188;52.324;8.032;2024-03-22T11:09:08;100375.97;;;11.00;100.00
60345;BME280;46188;52.324;8.032;2024-03-22T11:11:35;100373.34;;;10.99;100.00
60345;BME280;46188;52.324;8.032;2024-03-22T11:14:05;100385.66;;;10.98;100.00
60345;BME280;46188;52.324;8.032;2024-03-22T11:16:31;100378.63;;;10.97;100.00
60345;BME280;46188;52.324;8.032;2024-03-22T11:18:56;100376.84;;;10.96;100.00
60345;BME280;46188;52.324;8.032;2024-03-22T11:21:22;100367.16;;;10.97;100.00
60345;BME280;46188;52.324;8.032;2024-03-22T11:23:48;100362.78;;;10.94;100.00
60345;BME280;46188;52.324;8.032;2024-03-22T11:26:13;100371.53;;;10.93;100.00
60345;BME280;46188;52.324;8.032;2024-03-22T11:28:39;100366.28;;;10.93;100.00
60345;BME280;46188;52.324;8.032;2024-03-22T11:31:05;100367.13;;;10.92;100.00
60345;BME280;46188;52.324;8.032;2024-03-22T11:33:31;100365.41;;;10.93;100.00
60345;BME280;46188;52.324;8.032;2024-03-22T11:36:01;100346.91;;;10.91;100.00
60345;BME280;46188;52.324;8.032;2024-03-22T11:38:27;100363.59;;;10.90;100.00
60345;BME280;46188;52.324;8.032;2024-03-22T11:40:53;100359.19;;;10.90;100.00
60345;BME280;46188;52.324;8.032;2024-03-22T11:43:20;100351.28;;;10.87;100.00
60345;BME280;46188;52.324;8.032;2024-03-22T11:45:45;100362.66;;;10.83;100.00
60345;BME280;46188;52.324;8.032;2024-03-22T11:48:11;100359.16;;;10.81;100.00
60345;BME280;46188;52.324;8.032;2024-03-22T11:50:37;100362.66;;;10.80;100.00
60345;BME280;46188;52.324;8.032;2024-03-22T11:53:07;100360.00;;;10.80;100.00
60345;BME280;46188;52.324;8.032;2024-03-22T11:55:36;100354.75;;;10.82;100.00
60345;BME280;46188;52.324;8.032;2024-03-22T11:58:01;100354.72;;;10.80;100.00
60345;BME280;46188;52.324;8.032;2024-03-22T12:00:27;100355.63;;;10.79;100.00
60345;BME280;46188;52.324;8.032;2024-03-22T12:02:53;100351.22;;;10.78;100.00
60345;BME280;46188;52.324;8.032;2024-03-22T12:05:18;100353.84;;;10.77;100.00
60345;BME280;46188;52.324;8.032;2024-03-22T12:07:45;100353.81;;;10.74;100.00
60345;BME280;46188;52.324;8.032;2024-03-22T12:10:11;100352.06;;;10.73;100.00
60345;BME280;46188;52.324;8.032;2024-03-22T12:12:38;100350.28;;;10.73;100.00
60345;BME280;46188;52.324;8.032;2024-03-22T12:15:04;100345.88;;;10.72;100.00
60345;BME280;46188;52.324;8.032;2024-03-22T12:17:30;100345.84;;;10.69;100.00
60345;BME280;46188;52.324;8.032;2024-03-22T12:19:55;100334.41;;;10.67;100.00
60345;BME280;46188;52.324;8.032;2024-03-22T12:25:55;100327.38;;;10.63;100.00
60345;BME280;46188;52.324;8.032;2024-03-22T12:28:21;100329.09;;;10.62;100.00
60345;BME280;46188;52.324;8.032;2024-03-22T12:30:49;100329.06;;;10.61;100.00
60345;BME280;46188;52.324;8.032;2024-03-22T12:33:14;100316.81;;;10.61;100.00
60345;BME280;46188;52.324;8.032;2024-03-22T12:35:40;100311.53;;;10.61;100.00
60345;BME280;46188;52.324;8.032;2024-03-22T12:38:06;100309.78;;;10.63;100.00
60345;BME280;46188;52.324;8.032;2024-03-22T12:40:32;100302.72;;;10.62;100.00
60345;BME280;46188;52.324;8.032;2024-03-22T12:43:00;100311.53;;;10.61;100.00